createdAt,value
2019-03-03T00:00:45.117Z,9.60
2019-03-03T00:07:42.248Z,9.60
2019-03-03T00:14:40.589Z,9.60
2019-03-03T00:21:37.859Z,9.60
2019-03-03T00:28:34.924Z,9.70
2019-03-03T00:35:31.705Z,9.70
2019-03-03T00:49:45.208Z,9.60
2019-03-03T00:57:01.637Z,9.70
2019-03-03T01:04:17.646Z,9.70
2019-03-03T01:11:18.784Z,9.80
2019-03-03T01:18:20.942Z,9.80
2019-03-03T01:25:18.155Z,9.80
2019-03-03T01:32:15.489Z,9.70
2019-03-03T01:39:12.834Z,9.70
2019-03-03T01:46:10.036Z,9.70
2019-03-03T01:53:07.499Z,9.70
2019-03-03T02:00:04.306Z,9.70
2019-03-03T02:07:02.015Z,9.70
2019-03-03T02:13:59.123Z,9.70
2019-03-03T02:20:55.943Z,9.70
2019-03-03T02:27:53.179Z,9.70
2019-03-03T02:34:49.995Z,9.70
2019-03-03T02:41:47.113Z,9.70
2019-03-03T02:48:44.463Z,9.70
2019-03-03T02:55:41.210Z,9.80
2019-03-03T03:02:42.895Z,9.80
2019-03-03T03:09:41.290Z,9.70
2019-03-03T03:16:57.384Z,9.70
2019-03-03T03:23:59.023Z,9.40
2019-03-03T03:31:00.461Z,9.60
2019-03-03T03:38:17.003Z,9.70
2019-03-03T03:45:33.879Z,9.70
2019-03-03T03:52:33.437Z,9.40
2019-03-03T03:59:31.873Z,9.10
2019-03-03T04:06:48.015Z,9.00
2019-03-03T04:14:05.190Z,8.80
2019-03-03T04:21:03.716Z,8.60
2019-03-03T04:28:20.612Z,8.50
2019-03-03T04:35:19.475Z,8.50
2019-03-03T04:42:35.616Z,8.50
2019-03-03T04:49:34.098Z,8.50
2019-03-03T04:56:32.424Z,8.50
2019-03-03T05:03:31.701Z,8.50
2019-03-03T05:10:47.799Z,8.30
2019-03-03T05:18:04.219Z,8.20
2019-03-03T05:25:02.222Z,8.00
2019-03-03T05:31:59.077Z,7.90
2019-03-03T05:38:56.289Z,7.90
2019-03-03T05:45:53.156Z,7.90
2019-03-03T05:52:50.227Z,7.80
2019-03-03T05:59:47.668Z,7.60
2019-03-03T06:06:44.932Z,7.60
2019-03-03T06:13:42.612Z,7.90
2019-03-03T06:20:40.103Z,8.20
2019-03-03T06:27:37.245Z,8.50
2019-03-03T06:34:34.007Z,8.70
2019-03-03T06:41:30.960Z,8.90
2019-03-03T06:48:28.056Z,9.10
2019-03-03T06:55:25.106Z,9.30
2019-03-03T07:02:22.147Z,9.60
2019-03-03T07:09:20.150Z,10.00
2019-03-03T07:16:17.744Z,11.20
2019-03-03T07:23:15.310Z,13.30
2019-03-03T07:30:12.711Z,15.30
2019-03-03T07:37:10.313Z,12.70
2019-03-03T07:44:07.672Z,13.00
2019-03-03T07:51:05.051Z,13.90
2019-03-03T07:58:01.891Z,12.40
2019-03-03T08:04:59.103Z,11.80
2019-03-03T08:11:55.773Z,11.60
2019-03-03T08:18:53.259Z,11.40
2019-03-03T08:25:50.586Z,11.50
2019-03-03T08:32:47.945Z,11.70
2019-03-03T08:39:45.344Z,11.60
2019-03-03T08:54:02.205Z,11.70
2019-03-03T09:01:04.206Z,11.80
2019-03-03T09:08:20.269Z,11.90
2019-03-03T09:15:17.391Z,12.10
2019-03-03T09:22:16.087Z,12.80
2019-03-03T09:29:14.463Z,13.00
2019-03-03T09:43:59.403Z,13.10
2019-03-03T09:51:00.813Z,13.20
2019-03-03T09:58:17.213Z,13.10
2019-03-03T10:05:16.197Z,12.90
2019-03-03T10:12:32.688Z,12.80
2019-03-03T10:27:05.545Z,13.70
2019-03-03T10:34:04.658Z,14.20
2019-03-03T10:41:20.857Z,14.00
2019-03-03T11:10:35.107Z,13.60
2019-03-03T11:17:51.839Z,13.90
2019-03-03T11:24:52.931Z,14.80
2019-03-03T11:31:52.123Z,15.00
2019-03-03T11:39:08.245Z,15.10
2019-03-03T11:46:07.820Z,15.30
2019-03-03T11:53:24.202Z,15.60
2019-03-03T12:00:25.312Z,15.30
2019-03-03T12:07:27.039Z,15.50
2019-03-03T12:14:43.821Z,15.20
2019-03-03T12:28:58.227Z,14.40
2019-03-03T12:35:56.611Z,14.30
2019-03-03T12:50:42.899Z,14.90
2019-03-03T12:57:59.317Z,14.70
2019-03-03T13:12:45.391Z,15.40
2019-03-03T13:19:44.041Z,14.90
2019-03-03T13:27:00.607Z,14.30
2019-03-03T13:41:45.306Z,14.00
2019-03-03T13:48:43.007Z,14.10
2019-03-03T13:55:39.882Z,14.40
2019-03-03T14:02:37.158Z,14.60
2019-03-03T14:09:34.244Z,14.60
2019-03-03T14:16:31.454Z,14.50
2019-03-03T14:23:29.371Z,14.50
2019-03-03T14:30:26.405Z,14.60
2019-03-03T14:37:23.403Z,15.10
2019-03-03T14:44:20.828Z,15.40
2019-03-03T14:51:18.212Z,15.40
2019-03-03T14:58:16.821Z,15.40
2019-03-03T15:05:14.435Z,15.60
2019-03-03T15:12:11.247Z,15.70
2019-03-03T15:19:08.602Z,15.50
2019-03-03T15:26:06.364Z,15.20
2019-03-03T15:33:03.942Z,15.10
2019-03-03T15:40:00.822Z,14.90
2019-03-03T15:46:58.968Z,14.60
2019-03-03T15:53:56.967Z,14.40
2019-03-03T16:00:53.917Z,14.30
2019-03-03T16:07:49.233Z,14.10
2019-03-03T16:14:53.427Z,13.90
2019-03-03T16:21:50.546Z,13.70
2019-03-03T16:28:48.016Z,13.40
2019-03-03T16:35:45.206Z,13.30
2019-03-03T16:42:42.445Z,13.10
2019-03-03T16:49:39.692Z,13.00
2019-03-03T16:56:36.941Z,12.90
2019-03-03T17:03:34.231Z,12.70
2019-03-03T17:10:31.599Z,12.70
2019-03-03T17:17:29.112Z,12.60
2019-03-03T17:24:26.057Z,12.50
2019-03-03T17:31:23.955Z,12.40
2019-03-03T17:38:22.148Z,12.30
2019-03-03T17:45:19.805Z,12.30
2019-03-03T17:52:16.637Z,12.30
2019-03-03T17:59:13.307Z,12.10
2019-03-03T18:06:10.868Z,11.90
2019-03-03T18:13:07.727Z,11.90
2019-03-03T18:20:04.391Z,11.70
2019-03-03T18:27:01.575Z,11.40
2019-03-03T18:33:59.051Z,10.30
2019-03-03T18:40:56.444Z,10.80
2019-03-03T18:47:53.134Z,10.70
2019-03-03T18:54:50.907Z,10.50
2019-03-03T19:01:47.703Z,10.40
2019-03-03T19:08:43.091Z,10.10
2019-03-03T19:15:47.292Z,10.00
2019-03-03T19:22:44.492Z,10.20
2019-03-03T19:29:41.924Z,10.30
2019-03-03T19:36:38.949Z,10.20
2019-03-03T19:43:35.774Z,10.10
2019-03-03T19:50:32.739Z,10.10
2019-03-03T19:57:29.581Z,10.00
2019-03-03T20:04:27.219Z,10.40
2019-03-03T20:11:24.141Z,10.30
2019-03-03T20:18:21.168Z,10.30
2019-03-03T20:25:18.076Z,10.40
2019-03-03T20:32:13.335Z,10.60
2019-03-03T20:39:10.828Z,10.90
2019-03-03T20:46:06.366Z,11.00
2019-03-03T20:53:10.593Z,11.10
2019-03-03T21:00:08.126Z,11.00
2019-03-03T21:07:05.804Z,10.80
2019-03-03T21:14:03.830Z,10.70
2019-03-03T21:21:01.077Z,10.60
2019-03-03T21:27:57.928Z,10.40
2019-03-03T21:34:55.548Z,10.20
2019-03-03T21:41:52.992Z,9.90
2019-03-03T21:48:50.173Z,9.60
2019-03-03T21:55:47.194Z,9.50
2019-03-03T22:02:43.872Z,9.40
2019-03-03T22:09:40.996Z,9.50
2019-03-03T22:16:37.600Z,9.70
2019-03-03T22:23:35.163Z,10.00
2019-03-03T22:30:32.386Z,10.10
2019-03-03T22:37:29.955Z,10.30
2019-03-03T22:44:27.004Z,10.40
2019-03-03T22:51:23.915Z,10.20
2019-03-03T22:58:21.027Z,9.80
2019-03-03T23:05:17.800Z,9.50
2019-03-03T23:12:14.774Z,9.20
2019-03-03T23:19:11.968Z,9.10
2019-03-03T23:26:16.245Z,8.90
2019-03-03T23:33:08.631Z,8.80
2019-03-03T23:40:05.950Z,8.80
2019-03-03T23:47:02.839Z,8.60
2019-03-03T23:53:59.760Z,8.60
